createdAt,value
2022-09-06T00:00:01.191Z,704.40
2022-09-06T00:01:01.170Z,704.52
2022-09-06T00:02:01.182Z,705.20
2022-09-06T00:03:01.310Z,704.94
2022-09-06T00:04:01.227Z,705.66
2022-09-06T00:05:01.141Z,705.12
2022-09-06T00:06:01.123Z,704.91
2022-09-06T00:07:01.106Z,705.20
2022-09-06T00:08:01.116Z,705.59
2022-09-06T00:09:01.097Z,705.77
2022-09-06T00:10:01.076Z,705.61
2022-09-06T00:11:01.567Z,705.83
2022-09-06T00:12:01.054Z,705.81
2022-09-06T00:13:01.038Z,706.04
2022-09-06T00:14:01.048Z,706.20
2022-09-06T00:15:01.030Z,706.45
2022-09-06T00:16:01.100Z,706.53
2022-09-06T00:17:00.997Z,706.61
2022-09-06T00:18:01.011Z,707.28
2022-09-06T00:19:00.991Z,706.96
2022-09-06T00:20:00.968Z,707.59
2022-09-06T00:21:00.968Z,707.86
2022-09-06T00:22:00.960Z,707.95
2022-09-06T00:23:00.934Z,707.93
2022-09-06T00:24:00.936Z,708.47
2022-09-06T00:25:00.908Z,708.56
2022-09-06T00:26:00.908Z,708.75
2022-09-06T00:27:00.887Z,709.04
2022-09-06T00:28:00.877Z,709.06
2022-09-06T00:29:00.874Z,709.16
2022-09-06T00:30:00.860Z,709.16
2022-09-06T00:31:00.848Z,709.49
2022-09-06T00:32:00.834Z,709.68
2022-09-06T00:33:00.819Z,710.01
2022-09-06T00:34:00.809Z,710.07
2022-09-06T00:35:00.818Z,709.30
2022-09-06T00:36:00.796Z,710.17
2022-09-06T00:37:00.797Z,709.84
2022-09-06T00:38:00.767Z,710.08
2022-09-06T00:39:00.770Z,709.96
2022-09-06T00:40:00.846Z,709.68
2022-09-06T00:41:00.735Z,709.85
2022-09-06T00:42:00.722Z,709.99
2022-09-06T00:43:00.705Z,710.31
2022-09-06T00:44:00.705Z,710.12
2022-09-06T00:45:00.703Z,710.22
2022-09-06T00:46:07.766Z,710.26
2022-09-06T00:47:00.661Z,710.15
2022-09-06T00:48:00.652Z,710.49
2022-09-06T00:49:00.642Z,710.74
2022-09-06T00:50:00.643Z,710.63
2022-09-06T00:51:00.615Z,710.67
2022-09-06T00:52:00.625Z,711.09
2022-09-06T00:53:00.602Z,711.25
2022-09-06T00:54:00.585Z,711.45
2022-09-06T00:55:00.605Z,711.91
2022-09-06T00:56:00.561Z,711.74
2022-09-06T00:57:00.555Z,712.23
2022-09-06T00:58:00.537Z,712.67
2022-09-06T00:59:00.547Z,712.55
2022-09-06T01:00:00.532Z,712.89
2022-09-06T01:01:00.532Z,712.66
2022-09-06T01:02:00.668Z,712.80
2022-09-06T01:03:00.502Z,712.40
2022-09-06T01:04:00.487Z,712.54
2022-09-06T01:05:00.462Z,712.98
2022-09-06T01:06:00.457Z,712.89
2022-09-06T01:07:00.453Z,713.16
2022-09-06T01:08:00.425Z,713.20
2022-09-06T01:09:00.445Z,713.48
2022-09-06T01:10:00.419Z,713.40
2022-09-06T01:11:00.409Z,713.88
2022-09-06T01:12:00.381Z,713.57
2022-09-06T01:13:00.374Z,713.64
2022-09-06T01:14:00.359Z,713.00
2022-09-06T01:15:00.364Z,713.66
2022-09-06T01:16:00.431Z,713.62
2022-09-06T01:17:00.357Z,713.66
2022-09-06T01:18:00.312Z,713.70
2022-09-06T01:19:00.305Z,713.57
2022-09-06T01:20:00.311Z,713.87
2022-09-06T01:21:00.305Z,714.51
2022-09-06T01:22:01.036Z,714.70
2022-09-06T01:23:00.288Z,714.85
2022-09-06T01:24:00.246Z,714.91
2022-09-06T01:25:00.237Z,715.04
2022-09-06T01:26:00.222Z,714.87
2022-09-06T01:27:00.216Z,715.23
2022-09-06T01:28:00.223Z,714.86
2022-09-06T01:29:00.195Z,715.44
2022-09-06T01:30:00.201Z,715.60
2022-09-06T01:31:00.266Z,714.98
2022-09-06T01:32:00.162Z,715.14
2022-09-06T01:33:00.153Z,714.83
2022-09-06T01:34:00.145Z,714.87
2022-09-06T01:35:00.145Z,715.18
2022-09-06T01:36:00.131Z,714.83
2022-09-06T01:37:10.033Z,715.04
2022-09-06T01:38:01.090Z,715.42
2022-09-06T01:39:00.112Z,715.68
2022-09-06T01:40:00.200Z,715.32
2022-09-06T01:41:00.062Z,715.84
2022-09-06T01:42:00.068Z,716.41
2022-09-06T01:43:00.051Z,716.19
2022-09-06T01:44:00.040Z,715.85
2022-09-06T01:45:00.030Z,716.25
2022-09-06T01:46:00.112Z,716.03
2022-09-06T01:46:59.995Z,715.92
2022-09-06T01:47:59.984Z,716.09
2022-09-06T01:48:59.992Z,715.40
2022-09-06T01:49:59.956Z,715.92
2022-09-06T01:50:59.967Z,715.84
2022-09-06T01:51:59.960Z,715.45
2022-09-06T01:52:59.929Z,715.65
2022-09-06T01:53:59.921Z,715.90
2022-09-06T01:54:59.925Z,715.99
2022-09-06T01:55:59.894Z,716.52
2022-09-06T01:56:59.902Z,716.81
2022-09-06T01:57:59.870Z,716.88
2022-09-06T01:58:59.867Z,716.42
2022-09-06T01:59:59.858Z,716.69
2022-09-06T02:00:59.841Z,716.49
2022-09-06T02:01:59.862Z,716.46
2022-09-06T02:02:59.824Z,715.96
2022-09-06T02:03:59.819Z,716.02
2022-09-06T02:04:59.828Z,715.98
2022-09-06T02:05:59.798Z,716.13
2022-09-06T02:06:59.816Z,716.11
2022-09-06T02:07:59.760Z,716.11
2022-09-06T02:08:59.754Z,716.12
2022-09-06T02:09:59.738Z,716.41
2022-09-06T02:10:59.749Z,716.24
2022-09-06T02:11:59.720Z,716.60
2022-09-06T02:12:59.709Z,716.19
2022-09-06T02:13:59.712Z,716.31
2022-09-06T02:14:59.691Z,716.24
2022-09-06T02:15:59.713Z,716.64
2022-09-06T02:16:59.726Z,716.80
2022-09-06T02:17:59.663Z,716.96
2022-09-06T02:18:59.650Z,717.15
2022-09-06T02:19:59.631Z,717.21
2022-09-06T02:20:59.620Z,717.05
2022-09-06T02:21:59.605Z,717.17
2022-09-06T02:22:59.618Z,717.25
2022-09-06T02:23:59.582Z,717.35
2022-09-06T02:24:59.576Z,717.19
2022-09-06T02:25:59.570Z,717.42
2022-09-06T02:26:59.557Z,716.83
2022-09-06T02:27:59.551Z,717.12
2022-09-06T02:28:59.534Z,717.25
2022-09-06T02:29:59.521Z,717.14
2022-09-06T02:30:59.581Z,717.40
2022-09-06T02:31:59.496Z,717.39
2022-09-06T02:32:59.554Z,717.34
2022-09-06T02:33:59.488Z,717.33
2022-09-06T02:34:59.546Z,717.46
2022-09-06T02:35:59.498Z,717.59
2022-09-06T02:36:59.459Z,717.64
2022-09-06T02:37:59.508Z,717.34
2022-09-06T02:38:59.437Z,717.74
2022-09-06T02:39:59.477Z,717.35
2022-09-06T02:40:59.398Z,717.63
2022-09-06T02:41:59.382Z,717.82
2022-09-06T02:42:59.407Z,717.97
2022-09-06T02:43:59.363Z,717.84
2022-09-06T02:44:59.357Z,718.18
2022-09-06T02:45:59.479Z,717.97
2022-09-06T02:47:06.841Z,718.35
2022-09-06T02:47:59.315Z,718.41
2022-09-06T02:48:59.324Z,718.83
2022-09-06T02:49:59.308Z,718.91
2022-09-06T02:50:59.321Z,718.23
2022-09-06T02:51:59.269Z,718.38
2022-09-06T02:52:59.279Z,718.44
2022-09-06T02:53:59.248Z,718.24
2022-09-06T02:54:59.246Z,718.41
2022-09-06T02:55:59.230Z,718.46
2022-09-06T02:56:59.231Z,718.50
2022-09-06T02:57:59.220Z,718.41
2022-09-06T02:58:59.207Z,718.65
2022-09-06T02:59:59.201Z,718.98
2022-09-06T03:00:59.266Z,718.63
2022-09-06T03:01:59.218Z,718.65
2022-09-06T03:02:59.156Z,718.75
2022-09-06T03:03:59.139Z,718.64
2022-09-06T03:04:59.150Z,719.17
2022-09-06T03:05:59.129Z,718.83
2022-09-06T03:06:59.110Z,719.10
2022-09-06T03:07:59.094Z,719.22
2022-09-06T03:08:59.107Z,719.11
2022-09-06T03:09:59.075Z,719.29
2022-09-06T03:10:59.067Z,718.91
2022-09-06T03:11:59.055Z,718.65
2022-09-06T03:12:59.047Z,718.55
2022-09-06T03:13:59.048Z,718.35
2022-09-06T03:14:59.056Z,718.22
2022-09-06T03:15:59.036Z,718.33
2022-09-06T03:16:59.059Z,718.19
2022-09-06T03:17:58.985Z,718.42
2022-09-06T03:18:58.978Z,718.29
2022-09-06T03:19:58.963Z,718.23
2022-09-06T03:20:58.973Z,718.47
2022-09-06T03:21:58.940Z,718.61
2022-09-06T03:22:58.937Z,718.96
2022-09-06T03:23:58.919Z,718.80
2022-09-06T03:24:58.933Z,719.00
2022-09-06T03:25:58.896Z,718.87
2022-09-06T03:26:58.916Z,719.13
2022-09-06T03:27:58.911Z,719.56
2022-09-06T03:28:58.871Z,719.40
2022-09-06T03:29:58.851Z,719.21
2022-09-06T03:30:58.890Z,719.36
2022-09-06T03:31:58.846Z,719.50
2022-09-06T03:33:02.442Z,719.45
2022-09-06T03:33:58.812Z,719.45
2022-09-06T03:34:58.850Z,720.19
2022-09-06T03:35:58.788Z,720.28
2022-09-06T03:36:58.782Z,720.05
2022-09-06T03:37:58.764Z,720.45
2022-09-06T03:38:58.773Z,720.12
2022-09-06T03:39:58.806Z,720.38
2022-09-06T03:40:58.736Z,720.54
2022-09-06T03:41:58.722Z,720.65
2022-09-06T03:42:58.723Z,720.27
2022-09-06T03:43:58.715Z,720.34
2022-09-06T03:44:58.695Z,720.59
2022-09-06T03:45:58.781Z,720.38
2022-09-06T03:46:58.681Z,720.45
2022-09-06T03:47:58.656Z,720.70
2022-09-06T03:48:58.665Z,720.89
2022-09-06T03:49:58.635Z,720.58
2022-09-06T03:50:58.643Z,720.46
2022-09-06T03:51:58.632Z,720.62
2022-09-06T03:52:58.605Z,720.64
2022-09-06T03:53:58.592Z,720.93
2022-09-06T03:54:58.584Z,720.73
2022-09-06T03:55:58.589Z,720.58
2022-09-06T03:56:58.568Z,720.46
2022-09-06T03:57:58.547Z,720.65
2022-09-06T03:58:58.552Z,720.43
2022-09-06T03:59:58.538Z,720.40
2022-09-06T04:00:58.577Z,720.50
2022-09-06T04:01:58.556Z,720.79
2022-09-06T04:03:01.555Z,720.43
2022-09-06T04:03:58.492Z,720.66
2022-09-06T04:04:58.510Z,720.77
2022-09-06T04:05:58.462Z,720.55
2022-09-06T04:06:58.465Z,720.87
2022-09-06T04:07:58.433Z,720.86
2022-09-06T04:08:58.429Z,720.64
2022-09-06T04:09:58.413Z,720.83
2022-09-06T04:10:58.437Z,721.01
2022-09-06T04:11:58.391Z,721.08
2022-09-06T04:12:58.383Z,721.36
2022-09-06T04:13:58.368Z,720.85
2022-09-06T04:14:58.363Z,720.97
2022-09-06T04:15:58.367Z,720.92
2022-09-06T04:16:58.429Z,721.33
2022-09-06T04:17:58.323Z,721.09
2022-09-06T04:18:58.321Z,721.11
2022-09-06T04:19:58.634Z,720.93
2022-09-06T04:20:58.315Z,721.05
2022-09-06T04:21:58.280Z,721.10
2022-09-06T04:22:58.272Z,721.32
2022-09-06T04:23:58.263Z,720.84
2022-09-06T04:24:58.276Z,721.15
2022-09-06T04:25:58.236Z,721.47
2022-09-06T04:26:58.234Z,721.06
2022-09-06T04:27:58.214Z,721.23
2022-09-06T04:28:58.206Z,721.59
2022-09-06T04:29:58.217Z,721.48
2022-09-06T04:31:02.157Z,721.76
2022-09-06T04:31:59.205Z,721.57
2022-09-06T04:32:58.188Z,721.65
2022-09-06T04:33:58.177Z,721.70
2022-09-06T04:34:58.154Z,721.36
2022-09-06T04:35:58.159Z,721.72
2022-09-06T04:36:58.123Z,721.94
2022-09-06T04:37:58.113Z,722.20
2022-09-06T04:38:58.102Z,722.10
2022-09-06T04:39:58.113Z,722.27
2022-09-06T04:40:58.093Z,721.96
2022-09-06T04:41:58.069Z,722.31
2022-09-06T04:42:58.055Z,722.17
2022-09-06T04:43:58.056Z,722.17
2022-09-06T04:44:58.030Z,722.18
2022-09-06T04:45:58.090Z,722.25
2022-09-06T04:46:58.017Z,722.13
2022-09-06T04:48:05.829Z,722.63
2022-09-06T04:48:58.054Z,722.62
2022-09-06T04:49:57.971Z,722.53
2022-09-06T04:50:57.980Z,722.67
2022-09-06T04:51:57.950Z,722.69
2022-09-06T04:52:57.943Z,723.24
2022-09-06T04:53:57.930Z,723.29
2022-09-06T04:54:57.929Z,723.24
2022-09-06T04:55:57.934Z,723.38
2022-09-06T04:56:57.922Z,723.41
2022-09-06T04:57:57.911Z,723.87
2022-09-06T04:58:57.906Z,723.77
2022-09-06T04:59:57.873Z,723.68
2022-09-06T05:00:57.961Z,724.12
2022-09-06T05:01:57.925Z,724.20
2022-09-06T05:02:57.846Z,723.96
2022-09-06T05:03:57.833Z,724.07
2022-09-06T05:04:57.807Z,723.84
2022-09-06T05:05:57.807Z,723.93
2022-09-06T05:06:57.819Z,723.88
2022-09-06T05:07:57.787Z,724.00
2022-09-06T05:08:57.768Z,723.68
2022-09-06T05:09:57.756Z,724.40
2022-09-06T05:10:57.741Z,724.29
2022-09-06T05:11:57.736Z,724.51
2022-09-06T05:12:57.733Z,724.31
2022-09-06T05:13:57.714Z,724.45
2022-09-06T05:14:57.705Z,724.55
2022-09-06T05:15:57.699Z,724.94
2022-09-06T05:16:57.750Z,725.09
2022-09-06T05:17:57.667Z,724.63
2022-09-06T05:18:57.686Z,724.56
2022-09-06T05:19:57.652Z,724.65
2022-09-06T05:20:57.650Z,724.36
2022-09-06T05:21:57.627Z,724.78
2022-09-06T05:22:57.611Z,724.48
2022-09-06T05:23:58.812Z,724.73
2022-09-06T05:24:57.586Z,724.66
2022-09-06T05:25:57.594Z,724.61
2022-09-06T05:26:57.576Z,724.82
2022-09-06T05:27:57.611Z,725.00
2022-09-06T05:28:57.578Z,724.86
2022-09-06T05:29:57.546Z,725.44
2022-09-06T05:30:57.570Z,725.00
2022-09-06T05:31:57.575Z,725.08
2022-09-06T05:32:57.513Z,725.66
2022-09-06T05:33:57.510Z,725.76
2022-09-06T05:34:57.511Z,725.60
2022-09-06T05:35:57.470Z,725.67
2022-09-06T05:37:00.659Z,725.70
2022-09-06T05:37:57.449Z,725.84
2022-09-06T05:38:57.434Z,725.69
2022-09-06T05:39:57.464Z,725.85
2022-09-06T05:40:57.459Z,725.89
2022-09-06T05:41:57.409Z,725.88
2022-09-06T05:42:57.399Z,726.12
2022-09-06T05:43:58.170Z,726.09
2022-09-06T05:44:57.374Z,726.16
2022-09-06T05:45:57.765Z,725.83
2022-09-06T05:46:57.376Z,726.15
2022-09-06T05:47:57.337Z,725.94
2022-09-06T05:48:58.447Z,725.89
2022-09-06T05:49:57.345Z,725.92
2022-09-06T05:50:57.320Z,725.76
2022-09-06T05:51:57.293Z,725.76
2022-09-06T05:52:57.280Z,725.49
2022-09-06T05:53:57.303Z,725.29
2022-09-06T05:54:57.261Z,725.18
2022-09-06T05:55:57.254Z,724.83
2022-09-06T05:56:57.287Z,724.78
2022-09-06T05:57:57.737Z,724.51
2022-09-06T05:58:59.269Z,724.53
2022-09-06T05:59:57.220Z,724.37
2022-09-06T06:00:57.238Z,723.61
2022-09-06T06:01:57.233Z,723.71
2022-09-06T06:02:57.270Z,723.25
2022-09-06T06:03:57.161Z,723.38
2022-09-06T06:04:57.180Z,722.97
2022-09-06T06:05:57.217Z,723.08
2022-09-06T06:06:57.146Z,722.62
2022-09-06T06:07:57.138Z,722.86
2022-09-06T06:08:57.166Z,722.38
2022-09-06T06:09:57.112Z,722.06
2022-09-06T06:10:57.099Z,722.02
2022-09-06T06:11:57.079Z,721.59
2022-09-06T06:12:57.100Z,721.56
2022-09-06T06:13:57.087Z,721.30
2022-09-06T06:14:58.186Z,721.22
2022-09-06T06:15:57.190Z,721.09
2022-09-06T06:16:57.125Z,720.73
2022-09-06T06:17:57.072Z,720.61
2022-09-06T06:18:57.057Z,720.41
2022-09-06T06:19:57.008Z,720.48
2022-09-06T06:20:56.969Z,720.47
2022-09-06T06:21:57.230Z,720.56
2022-09-06T06:22:56.972Z,720.11
2022-09-06T06:23:57.037Z,720.40
2022-09-06T06:24:56.947Z,720.07
2022-09-06T06:25:57.042Z,720.46
2022-09-06T06:26:57.779Z,720.36
2022-09-06T06:27:57.215Z,720.18
2022-09-06T06:28:56.960Z,720.03
2022-09-06T06:29:56.877Z,720.29
2022-09-06T06:30:57.015Z,720.38
2022-09-06T06:31:58.852Z,720.33
2022-09-06T06:32:56.837Z,720.24
2022-09-06T06:33:56.872Z,720.39
2022-09-06T06:34:56.828Z,720.29
2022-09-06T06:35:56.805Z,719.94
2022-09-06T06:36:56.937Z,720.42
2022-09-06T06:37:56.816Z,719.93
2022-09-06T06:38:56.799Z,720.22
2022-09-06T06:39:56.816Z,719.54
2022-09-06T06:41:00.939Z,719.94
2022-09-06T06:41:57.739Z,719.71
2022-09-06T06:42:56.768Z,719.76
2022-09-06T06:43:56.719Z,719.57
2022-09-06T06:44:56.712Z,719.43
2022-09-06T06:45:56.955Z,719.13
2022-09-06T06:46:56.751Z,719.17
2022-09-06T06:47:56.681Z,718.78
2022-09-06T06:49:04.167Z,718.43
2022-09-06T06:49:56.663Z,718.33
2022-09-06T06:50:56.675Z,718.13
2022-09-06T06:51:56.629Z,717.88
2022-09-06T06:52:56.660Z,717.88
2022-09-06T06:53:56.611Z,717.54
2022-09-06T06:54:56.617Z,717.84
2022-09-06T06:55:56.604Z,717.87
2022-09-06T06:56:56.567Z,717.52
2022-09-06T06:57:56.610Z,717.26
2022-09-06T06:58:56.562Z,716.90
2022-09-06T06:59:56.542Z,717.14
2022-09-06T07:00:56.761Z,716.96
2022-09-06T07:01:57.079Z,716.75
2022-09-06T07:02:56.530Z,716.19
2022-09-06T07:03:56.524Z,716.09
2022-09-06T07:04:56.575Z,715.95
2022-09-06T07:06:12.591Z,715.85
2022-09-06T07:07:57.456Z,715.67
2022-09-06T07:08:56.462Z,716.27
2022-09-06T07:10:57.596Z,717.34
2022-09-06T07:11:56.461Z,717.75
2022-09-06T07:12:56.393Z,718.08
2022-09-06T07:13:56.383Z,717.90
2022-09-06T07:14:56.389Z,717.93
2022-09-06T07:15:56.431Z,717.93
2022-09-06T07:16:56.378Z,717.62
2022-09-06T07:17:56.426Z,717.35
2022-09-06T07:18:56.403Z,717.04
2022-09-06T07:21:58.536Z,717.93
2022-09-06T07:22:56.349Z,718.43
2022-09-06T07:24:11.599Z,718.68
2022-09-06T07:24:57.285Z,718.73
2022-09-06T07:25:56.254Z,718.39
2022-09-06T07:27:57.298Z,717.09
2022-09-06T07:28:56.227Z,716.67
2022-09-06T07:29:56.312Z,716.30
2022-09-06T07:30:56.193Z,715.88
2022-09-06T07:32:11.920Z,715.36
2022-09-06T07:32:57.171Z,714.87
2022-09-06T07:33:56.248Z,714.80
2022-09-06T07:34:56.149Z,713.89
2022-09-06T07:35:56.267Z,713.65
2022-09-06T07:38:24.153Z,713.23
2022-09-06T07:40:32.487Z,712.26
2022-09-06T07:41:34.473Z,711.31
2022-09-06T07:42:51.208Z,711.18
2022-09-06T07:43:24.491Z,711.60
2022-09-06T07:44:21.025Z,712.35
2022-09-06T07:45:21.005Z,712.94
2022-09-06T07:46:20.941Z,712.54
2022-09-06T07:48:21.953Z,712.15
2022-09-06T07:49:20.916Z,711.41
2022-09-06T07:51:21.873Z,710.65
2022-09-06T07:53:29.287Z,711.05
2022-09-06T07:54:30.762Z,711.43
2022-09-06T07:55:21.797Z,711.29
2022-09-06T07:56:20.834Z,711.25
2022-09-06T07:57:20.779Z,711.72
2022-09-06T07:58:20.764Z,711.67
2022-09-06T07:59:20.763Z,712.02
2022-09-06T08:00:20.792Z,711.41
2022-09-06T08:01:20.827Z,711.23
2022-09-06T08:02:20.835Z,712.02
2022-09-06T08:03:20.752Z,713.41
2022-09-06T08:04:20.751Z,713.36
2022-09-06T08:06:21.678Z,712.67
2022-09-06T08:09:21.748Z,710.59
2022-09-06T08:10:20.673Z,709.95
2022-09-06T08:11:20.683Z,708.59
2022-09-06T08:12:20.647Z,707.49
2022-09-06T08:13:22.127Z,706.14
2022-09-06T08:14:20.611Z,704.95
2022-09-06T08:15:20.641Z,704.35
2022-09-06T08:16:21.514Z,703.49
2022-09-06T08:17:20.575Z,702.76
2022-09-06T08:18:20.685Z,702.41
2022-09-06T08:19:20.558Z,701.33
2022-09-06T08:20:20.591Z,701.41
2022-09-06T08:21:20.561Z,701.61
2022-09-06T08:22:20.519Z,700.91
2022-09-06T08:23:20.553Z,700.75
2022-09-06T08:24:20.540Z,700.13
2022-09-06T08:25:20.524Z,700.62
2022-09-06T08:26:20.590Z,701.14
2022-09-06T08:27:20.538Z,700.73
2022-09-06T08:28:20.501Z,701.91
2022-09-06T08:29:20.645Z,701.39
2022-09-06T08:30:20.555Z,700.47
2022-09-06T08:31:20.456Z,699.76
2022-09-06T08:32:20.400Z,699.94
2022-09-06T08:33:20.402Z,700.22
2022-09-06T08:34:20.379Z,699.23
2022-09-06T08:35:20.492Z,698.77
2022-09-06T08:36:20.353Z,698.89
2022-09-06T08:37:24.855Z,698.26
2022-09-06T08:38:20.460Z,698.32
2022-09-06T08:39:20.344Z,698.38
2022-09-06T08:40:20.340Z,698.41
2022-09-06T08:41:20.327Z,698.61
2022-09-06T08:42:20.294Z,699.00
2022-09-06T08:43:20.299Z,699.31
2022-09-06T08:45:21.308Z,699.86
2022-09-06T08:46:20.358Z,699.34
2022-09-06T08:47:20.254Z,698.57
2022-09-06T08:48:20.612Z,697.47
2022-09-06T08:49:20.235Z,696.76
2022-09-06T08:50:20.204Z,695.47
2022-09-06T08:51:20.329Z,694.83
2022-09-06T08:52:20.189Z,694.53
2022-09-06T08:53:20.193Z,693.39
2022-09-06T08:54:20.162Z,693.53
2022-09-06T08:55:20.147Z,694.64
2022-09-06T08:56:20.147Z,694.35
2022-09-06T08:57:20.713Z,693.55
2022-09-06T08:58:20.559Z,692.49
2022-09-06T08:59:20.100Z,691.70
2022-09-06T09:00:20.157Z,690.56
2022-09-06T09:01:26.503Z,690.06
2022-09-06T09:02:20.158Z,689.64
2022-09-06T09:03:20.364Z,689.07
2022-09-06T09:04:20.073Z,688.36
2022-09-06T09:05:20.291Z,687.73
2022-09-06T09:06:20.035Z,686.98
2022-09-06T09:07:20.050Z,686.03
2022-09-06T09:08:20.043Z,686.04
2022-09-06T09:09:20.003Z,685.41
2022-09-06T09:10:20.160Z,684.73
2022-09-06T09:11:20.040Z,685.90
2022-09-06T09:12:23.699Z,686.49
2022-09-06T09:13:19.950Z,686.39
2022-09-06T09:14:19.982Z,685.24
2022-09-06T09:15:19.971Z,685.72
2022-09-06T09:16:20.287Z,685.07
2022-09-06T09:17:19.994Z,685.41
2022-09-06T09:18:20.112Z,685.22
2022-09-06T09:19:19.920Z,684.65
2022-09-06T09:20:19.920Z,685.48
2022-09-06T09:21:20.011Z,685.06
2022-09-06T09:22:19.867Z,684.36
2022-09-06T09:23:19.885Z,684.16
2022-09-06T09:24:19.841Z,684.37
2022-09-06T09:25:19.867Z,683.98
2022-09-06T09:26:20.208Z,683.57
2022-09-06T09:27:19.872Z,683.69
2022-09-06T09:28:19.916Z,684.92
2022-09-06T09:29:22.849Z,684.50
2022-09-06T09:31:20.814Z,684.74
2022-09-06T09:32:20.639Z,684.81
2022-09-06T09:33:19.795Z,684.18
2022-09-06T09:34:19.726Z,683.57
2022-09-06T09:35:19.727Z,682.52
2022-09-06T09:36:19.709Z,682.08
2022-09-06T09:38:20.696Z,681.40
2022-09-06T09:39:19.694Z,680.62
2022-09-06T09:40:30.050Z,680.06
2022-09-06T09:41:19.647Z,679.92
2022-09-06T09:42:19.641Z,679.53
2022-09-06T09:43:19.644Z,678.78
2022-09-06T09:44:19.630Z,678.29
2022-09-06T09:45:20.478Z,677.66
2022-09-06T09:46:19.681Z,676.81
2022-09-06T09:47:19.580Z,677.77
2022-09-06T09:48:19.646Z,677.47
2022-09-06T09:49:19.560Z,677.13
2022-09-06T09:50:19.560Z,677.56
2022-09-06T09:51:26.237Z,677.16
2022-09-06T09:52:20.811Z,677.22
2022-09-06T09:53:19.988Z,677.23
2022-09-06T09:54:19.638Z,677.56
2022-09-06T09:55:19.505Z,677.40
2022-09-06T09:56:19.492Z,676.68
2022-09-06T09:57:19.519Z,676.83
2022-09-06T09:58:19.471Z,678.09
2022-09-06T09:59:19.987Z,677.89
2022-09-06T10:00:20.736Z,677.38
2022-09-06T10:03:11.373Z,676.67
2022-09-06T10:04:45.124Z,678.05
2022-09-06T10:05:51.703Z,677.65
2022-09-06T10:07:19.870Z,676.19
2022-09-06T10:08:12.521Z,676.52
2022-09-06T10:08:47.361Z,676.80
2022-09-06T10:10:13.357Z,676.03
2022-09-06T10:10:48.457Z,675.79
2022-09-06T10:11:42.417Z,675.25
2022-09-06T10:12:59.428Z,674.20
2022-09-06T10:13:39.335Z,673.47
2022-09-06T10:14:37.779Z,673.17
2022-09-06T10:15:37.739Z,673.17
2022-09-06T10:16:37.764Z,673.37
2022-09-06T10:17:37.732Z,673.08
2022-09-06T10:18:37.720Z,673.58
2022-09-06T10:19:37.717Z,674.41
2022-09-06T10:20:37.738Z,673.84
2022-09-06T10:21:37.686Z,673.99
2022-09-06T10:22:37.665Z,674.39
2022-09-06T10:24:38.726Z,673.97
2022-09-06T10:25:37.668Z,674.40
2022-09-06T10:26:37.628Z,673.65
2022-09-06T10:27:42.522Z,673.08
2022-09-06T10:28:38.607Z,672.70
2022-09-06T10:29:37.595Z,672.85
2022-09-06T10:30:37.592Z,672.18
2022-09-06T10:31:37.624Z,672.08
2022-09-06T10:32:37.587Z,671.96
2022-09-06T10:33:37.549Z,672.71
2022-09-06T10:34:39.157Z,672.79
2022-09-06T10:35:37.526Z,672.64
2022-09-06T10:36:37.570Z,672.72
2022-09-06T10:37:37.519Z,672.31
2022-09-06T10:38:38.272Z,671.75
2022-09-06T10:39:37.782Z,671.88
2022-09-06T10:40:37.473Z,671.14
2022-09-06T10:41:37.551Z,671.24
2022-09-06T10:42:37.466Z,671.31
2022-09-06T10:43:37.442Z,671.59
2022-09-06T10:44:38.059Z,671.48
2022-09-06T10:45:37.433Z,670.69
2022-09-06T10:46:37.474Z,670.70
2022-09-06T10:47:37.548Z,670.97
2022-09-06T10:48:37.402Z,671.41
2022-09-06T10:49:37.404Z,671.90
2022-09-06T10:50:37.391Z,671.83
2022-09-06T10:51:37.348Z,671.17
2022-09-06T10:52:37.342Z,670.86
2022-09-06T10:53:37.344Z,670.46
2022-09-06T10:54:37.332Z,671.73
2022-09-06T10:55:37.358Z,671.78
2022-09-06T10:56:37.359Z,671.68
2022-09-06T10:59:38.856Z,670.77
2022-09-06T11:00:37.410Z,670.41
2022-09-06T11:01:37.355Z,670.44
2022-09-06T11:02:37.792Z,670.43
2022-09-06T11:05:38.549Z,670.27
2022-09-06T11:06:37.261Z,669.75
2022-09-06T11:07:37.350Z,669.18
2022-09-06T11:08:53.597Z,669.35
2022-09-06T11:09:38.255Z,668.67
2022-09-06T11:10:38.530Z,668.54
2022-09-06T11:11:37.137Z,669.40
2022-09-06T11:12:37.151Z,668.80
2022-09-06T11:13:37.124Z,667.85
2022-09-06T11:14:37.132Z,667.66
2022-09-06T11:15:37.155Z,667.66
2022-09-06T11:16:37.084Z,667.07
2022-09-06T11:17:37.086Z,666.86
2022-09-06T11:18:37.066Z,666.57
2022-09-06T11:19:37.061Z,666.47
2022-09-06T11:20:37.041Z,667.94
2022-09-06T11:21:37.052Z,669.41
2022-09-06T11:22:37.018Z,669.49
2022-09-06T11:23:37.026Z,669.58
2022-09-06T11:24:36.997Z,669.25
2022-09-06T11:25:36.982Z,669.47
2022-09-06T11:26:36.974Z,668.66
2022-09-06T11:27:37.445Z,667.91
2022-09-06T11:28:36.956Z,667.20
2022-09-06T11:29:36.939Z,666.74
2022-09-06T11:30:36.933Z,668.14
2022-09-06T11:32:37.933Z,666.60
2022-09-06T11:33:36.911Z,666.34
2022-09-06T11:34:36.904Z,666.28
2022-09-06T11:35:36.880Z,666.07
2022-09-06T11:36:37.131Z,666.79
2022-09-06T11:37:36.853Z,666.93
2022-09-06T11:38:36.860Z,666.53
2022-09-06T11:40:37.847Z,665.79
2022-09-06T11:41:36.818Z,665.57
2022-09-06T11:42:36.839Z,665.54
2022-09-06T11:43:36.837Z,665.09
2022-09-06T11:44:36.800Z,664.96
2022-09-06T11:45:36.779Z,666.47
2022-09-06T11:46:36.789Z,665.83
2022-09-06T11:47:36.767Z,666.54
2022-09-06T11:48:38.369Z,666.71
2022-09-06T11:49:36.731Z,666.24
2022-09-06T11:50:36.743Z,666.45
2022-09-06T11:51:36.721Z,665.98
2022-09-06T11:52:36.800Z,666.66
2022-09-06T11:53:36.724Z,667.57
2022-09-06T11:54:36.683Z,668.30
2022-09-06T11:55:36.664Z,668.78
2022-09-06T11:56:36.667Z,668.46
2022-09-06T11:57:36.644Z,667.71
2022-09-06T11:58:36.675Z,666.72
2022-09-06T11:59:36.633Z,665.77
2022-09-06T12:00:36.630Z,665.15
2022-09-06T12:01:36.625Z,665.62
2022-09-06T12:02:36.821Z,665.13
2022-09-06T12:05:46.546Z,665.44
2022-09-06T12:06:46.514Z,665.21
2022-09-06T12:07:46.507Z,664.41
2022-09-06T12:08:46.510Z,663.55
2022-09-06T12:09:46.486Z,663.32
2022-09-06T12:10:46.471Z,663.53
2022-09-06T12:11:46.535Z,663.00
2022-09-06T12:12:47.339Z,663.02
2022-09-06T12:13:46.452Z,663.97
2022-09-06T12:14:46.436Z,663.89
2022-09-06T12:15:46.480Z,663.71
2022-09-06T12:16:46.407Z,663.57
2022-09-06T12:17:46.423Z,663.28
2022-09-06T12:18:46.385Z,664.27
2022-09-06T12:19:46.463Z,665.70
2022-09-06T12:20:46.370Z,666.94
2022-09-06T12:21:46.358Z,667.47
2022-09-06T12:22:46.405Z,668.32
2022-09-06T12:23:46.336Z,668.81
2022-09-06T12:24:46.326Z,668.97
2022-09-06T12:25:46.337Z,668.48
2022-09-06T12:26:46.312Z,668.15
2022-09-06T12:27:46.292Z,667.87
2022-09-06T12:28:46.276Z,668.81
2022-09-06T12:29:46.273Z,668.54
2022-09-06T12:30:46.278Z,668.06
2022-09-06T12:31:46.345Z,668.50
2022-09-06T12:32:46.269Z,668.34
2022-09-06T12:33:46.250Z,667.32
2022-09-06T12:34:46.362Z,666.66
2022-09-06T12:36:47.220Z,665.01
2022-09-06T12:37:46.184Z,664.43
2022-09-06T12:38:46.173Z,664.26
2022-09-06T12:39:46.255Z,664.70
2022-09-06T12:40:46.174Z,664.35
2022-09-06T12:41:46.156Z,663.60
2022-09-06T12:42:46.124Z,664.21
2022-09-06T12:43:46.119Z,664.41
2022-09-06T12:44:46.108Z,664.06
2022-09-06T12:45:46.179Z,664.39
2022-09-06T12:46:46.164Z,663.65
2022-09-06T12:47:46.204Z,662.87
2022-09-06T12:48:46.062Z,662.38
2022-09-06T12:49:46.056Z,662.05
2022-09-06T12:50:46.064Z,661.85
2022-09-06T12:51:46.052Z,662.73
2022-09-06T12:52:46.019Z,663.22
2022-09-06T12:53:46.027Z,663.10
2022-09-06T12:54:46.009Z,663.03
2022-09-06T12:55:46.007Z,663.26
2022-09-06T12:56:46.006Z,662.73